Time;durP1;ratioP1;P1;durP2;ratioP2;P2;SDS_P1;SDS_P2;PMS_P1;PMS_P2;Temp;Humidity;BMP_temperature;BMP_pressure;BME280_temperature;BME280_humidity;BME280_pressure;Samples;Min_cycle;Max_cycle;Signal;HPM_P1;HPM_P2
2022/08/25 00:01:58;;;;;;;51.28;34.60;;;564.00;2432.00;;;;;;5068372;28;20025;-80
2022/08/25 00:04:25;;;;;;;51.83;35.97;;;564.00;2432.00;;;;;;5046828;28;20029;-80
2022/08/25 00:06:52;;;;;;;43.45;32.92;;;564.10;2432.00;;;;;;5037908;28;20069;-80
2022/08/25 00:09:21;;;;;;;48.78;33.33;;;564.10;2432.00;;;;;;5042628;28;20049;-81
2022/08/25 00:11:48;;;;;;;50.67;35.45;;;564.00;2432.00;;;;;;5075983;28;20036;-80
2022/08/25 00:14:18;;;;;;;52.28;35.33;;;564.00;2432.00;;;;;;5036250;28;20029;-81
2022/08/25 00:16:45;;;;;;;52.33;34.60;;;564.00;2432.00;;;;;;5040580;28;20029;-80
2022/08/25 00:19:15;;;;;;;48.50;34.30;;;563.90;2432.00;;;;;;5044076;28;20048;-80
2022/08/25 00:21:42;;;;;;;50.15;34.38;;;563.90;2432.00;;;;;;5043783;28;20028;-79
2022/08/25 00:24:10;;;;;;;51.03;34.63;;;563.90;2432.00;;;;;;5042605;28;20033;-81
2022/08/25 00:26:39;;;;;;;48.50;32.38;;;563.80;2432.00;;;;;;5040754;28;20033;-80
2022/08/25 00:29:06;;;;;;;54.22;34.13;;;589.00;2432.00;;;;;;5068443;28;20033;-81
2022/08/25 00:31:32;;;;;;;49.20;32.92;;;563.80;2432.00;;;;;;5036119;28;20038;-79
2022/08/25 00:33:57;;;;;;;48.08;32.95;;;563.70;2432.00;;;;;;5035458;28;20492;-80
2022/08/25 00:36:25;;;;;;;45.55;33.03;;;563.70;2432.00;;;;;;5070728;28;20052;-81
2022/08/25 00:38:50;;;;;;;48.88;33.58;;;563.70;2432.00;;;;;;5035899;28;20021;-80
2022/08/25 00:41:21;;;;;;;49.95;33.42;;;563.70;2432.00;;;;;;5035495;28;20052;-80
2022/08/25 00:43:55;;;;;;;48.60;33.42;;;563.70;2432.00;;;;;;5037805;28;20065;-81
2022/08/25 00:46:28;;;;;;;52.45;34.78;;;563.70;2432.00;;;;;;5038901;28;20120;-81
2022/08/25 00:49:01;;;;;;;48.95;33.80;;;563.70;2432.00;;;;;;5039156;28;20033;-79
2022/08/25 00:51:56;;;;;;;46.35;33.10;;;563.60;2432.00;;;;;;5039494;28;20370;-80
2022/08/25 00:54:35;;;;;;;50.20;35.20;;;563.60;2432.00;;;;;;5024884;28;20034;-80
2022/08/25 00:57:03;;;;;;;48.95;33.72;;;563.60;2432.00;;;;;;5034706;28;20040;-80
2022/08/25 00:59:30;;;;;;;52.20;33.47;;;563.60;2432.00;;;;;;5036899;28;20026;-79
2022/08/25 01:01:57;;;;;;;48.97;34.28;;;563.60;2432.00;;;;;;5050607;28;20474;-79
2022/08/25 01:04:24;;;;;;;48.17;33.90;;;563.60;2432.00;;;;;;5052199;28;20025;-80
2022/08/25 01:06:50;;;;;;;51.20;33.95;;;563.50;2432.00;;;;;;5043921;28;20116;-81
2022/08/25 01:09:18;;;;;;;49.83;33.53;;;563.50;2432.00;;;;;;5035954;28;20052;-80
2022/08/25 01:11:45;;;;;;;46.38;32.55;;;563.50;2432.00;;;;;;5040344;28;20026;-79
2022/08/25 01:14:15;;;;;;;46.50;32.20;;;563.60;2432.00;;;;;;5035859;28;20050;-80
2022/08/25 01:16:42;;;;;;;48.75;33.67;;;563.60;2432.00;;;;;;5070407;28;20116;-80
2022/08/25 01:19:11;;;;;;;50.70;33.20;;;563.50;2432.00;;;;;;5036826;28;20078;-80
2022/08/25 01:21:56;;;;;;;51.67;34.85;;;563.50;2432.00;;;;;;5037944;28;20874;-81
2022/08/25 01:24:41;;;;;;;50.38;32.70;;;563.50;2432.00;;;;;;5040747;28;20082;-81
2022/08/25 01:27:08;;;;;;;49.80;33.13;;;588.90;2432.00;;;;;;5033542;28;20037;-80
2022/08/25 01:29:35;;;;;;;49.10;32.67;;;563.50;2432.00;;;;;;5035177;28;20036;-81
2022/08/25 01:32:04;;;;;;;43.65;31.27;;;563.40;2432.00;;;;;;5035715;28;20029;-80
2022/08/25 01:34:33;;;;;;;46.70;33.00;;;563.40;2432.00;;;;;;5033280;28;20056;-81
2022/08/25 01:37:00;;;;;;;46.88;32.45;;;563.40;2432.00;;;;;;5069366;28;20033;-79
2022/08/25 01:39:28;;;;;;;46.45;31.73;;;563.40;2432.00;;;;;;5070780;28;20037;-80
2022/08/25 01:42:04;;;;;;;49.17;32.22;;;563.40;2432.00;;;;;;5039610;28;20029;-79
2022/08/25 01:44:34;;;;;;;46.83;31.40;;;563.40;2432.00;;;;;;5038206;28;20491;-80
2022/08/25 01:47:01;;;;;;;51.17;33.83;;;563.30;2432.00;;;;;;5038359;28;20486;-79
2022/08/25 01:49:26;;;;;;;43.55;32.13;;;563.30;2432.00;;;;;;5058158;28;20585;-81
2022/08/25 01:51:59;;;;;;;45.63;31.63;;;563.30;2432.00;;;;;;5037430;28;20025;-81
2022/08/25 01:54:25;;;;;;;46.53;32.13;;;563.40;2432.00;;;;;;5069487;28;20098;-80
2022/08/25 01:56:51;;;;;;;41.45;30.42;;;563.40;2432.00;;;;;;5067701;28;20522;-80
2022/08/25 01:59:18;;;;;;;47.80;32.65;;;563.50;2432.00;;;;;;5039867;28;20026;-80
2022/08/25 02:01:45;;;;;;;42.63;30.17;;;563.40;2432.00;;;;;;5042377;28;20029;-81
2022/08/25 02:04:11;;;;;;;44.03;29.98;;;563.40;2432.00;;;;;;5036469;28;20035;-81
2022/08/25 02:06:37;;;;;;;40.95;29.90;;;563.40;2432.00;;;;;;5068834;28;20226;-79
2022/08/25 02:09:10;;;;;;;43.70;32.33;;;563.40;2432.00;;;;;;5038915;28;20033;-80
2022/08/25 02:11:38;;;;;;;46.15;31.50;;;563.50;2432.00;;;;;;5034771;28;20037;-79
2022/08/25 02:14:04;;;;;;;42.83;29.13;;;563.50;2432.00;;;;;;5032184;28;20108;-80
2022/08/25 02:16:33;;;;;;;42.13;29.35;;;563.50;2432.00;;;;;;5032180;28;20061;-80
2022/08/25 02:18:58;;;;;;;45.22;30.35;;;563.40;2432.00;;;;;;5069098;28;20025;-80
2022/08/25 02:21:25;;;;;;;46.75;32.53;;;563.40;2432.00;;;;;;5038464;28;20031;-80
2022/08/25 02:23:52;;;;;;;41.83;30.45;;;563.40;2432.00;;;;;;5032843;28;20032;-80
2022/08/25 02:26:18;;;;;;;44.80;29.88;;;563.40;2432.00;;;;;;5039783;28;20052;-81
2022/08/25 02:28:49;;;;;;;42.83;29.15;;;563.40;2432.00;;;;;;5035462;28;20039;-80
2022/08/25 02:31:16;;;;;;;42.90;30.10;;;563.40;2432.00;;;;;;5071378;28;20135;-80
2022/08/25 02:33:42;;;;;;;44.15;31.17;;;563.40;2432.00;;;;;;5037210;28;20037;-80
2022/08/25 02:36:08;;;;;;;41.50;30.08;;;563.40;2432.00;;;;;;5065854;28;20402;-81
2022/08/25 02:38:35;;;;;;;39.38;29.92;;;563.30;2432.00;;;;;;5034275;28;20459;-79
2022/08/25 02:41:11;;;;;;;41.05;29.38;;;563.40;2432.00;;;;;;5034463;28;20039;-78
2022/08/25 02:43:38;;;;;;;45.08;30.63;;;563.30;2432.00;;;;;;5071307;28;20028;-80
2022/08/25 02:46:04;;;;;;;37.70;28.33;;;563.30;2432.00;;;;;;5071280;28;20033;-80
2022/08/25 02:48:29;;;;;;;43.13;30.73;;;563.30;2432.00;;;;;;5065954;28;20536;-80
2022/08/25 02:50:59;;;;;;;42.90;29.58;;;563.30;2432.00;;;;;;5066657;28;20022;-81
2022/08/25 02:53:27;;;;;;;41.70;31.05;;;563.30;2432.00;;;;;;5040080;28;20492;-80
2022/08/25 02:55:53;;;;;;;43.20;30.80;;;563.30;2432.00;;;;;;5032845;28;20039;-79
2022/08/25 02:58:20;;;;;;;43.80;29.80;;;538.50;2406.40;;;;;;5067238;28;20047;-80
2022/08/25 03:00:47;;;;;;;42.53;30.17;;;538.50;2406.40;;;;;;5081648;28;20080;-80
2022/08/25 03:03:13;;;;;;;41.53;27.75;;;563.20;2432.00;;;;;;5050474;28;20389;-82
2022/08/25 03:05:39;;;;;;;44.50;30.58;;;563.20;2432.00;;;;;;5051080;28;20056;-81
2022/08/25 03:08:06;;;;;;;38.75;29.20;;;538.50;2406.40;;;;;;5055354;28;20386;-77
2022/08/25 03:10:32;;;;;;;41.40;29.73;;;538.50;2406.40;;;;;;5048970;28;20026;-81
2022/08/25 03:12:58;;;;;;;40.85;29.60;;;538.50;2406.40;;;;;;5043287;28;21736;-81
2022/08/25 03:15:26;;;;;;;37.60;28.13;;;538.50;2406.40;;;;;;5074655;28;20020;-78
2022/08/25 03:17:54;;;;;;;38.38;27.60;;;538.50;2406.40;;;;;;5074914;28;20083;-80
2022/08/25 03:20:21;;;;;;;38.05;27.65;;;538.50;2406.40;;;;;;5037111;28;20032;-80
2022/08/25 03:22:47;;;;;;;43.20;28.58;;;538.50;2406.40;;;;;;5038982;28;20026;-78
2022/08/25 03:27:58;;;;;;;37.50;28.25;;;538.50;2406.40;;;;;;5036010;28;20120;-79
2022/08/25 03:30:25;;;;;;;42.22;29.38;;;538.50;2406.40;;;;;;5069105;28;20537;-80
2022/08/25 03:32:51;;;;;;;44.13;29.65;;;538.50;2406.40;;;;;;5070664;28;20091;-78
2022/08/25 03:35:17;;;;;;;37.70;28.50;;;538.50;2406.40;;;;;;5041141;28;20049;-78
2022/08/25 03:37:43;;;;;;;43.60;30.00;;;538.50;2406.40;;;;;;5039627;28;20391;-80
2022/08/25 03:40:13;;;;;;;39.60;29.42;;;538.50;2406.40;;;;;;5040826;28;20025;-78
2022/08/25 03:42:43;;;;;;;43.05;28.75;;;538.50;2406.40;;;;;;5043301;28;20493;-80
2022/08/25 03:45:11;;;;;;;41.15;29.95;;;538.50;2406.40;;;;;;5052271;28;20061;-78
2022/08/25 03:47:39;;;;;;;46.35;30.38;;;538.50;2406.40;;;;;;5070855;28;20030;-78
2022/08/25 03:50:10;;;;;;;39.78;28.75;;;538.40;2406.40;;;;;;5040256;28;20033;-79
2022/08/25 03:52:37;;;;;;;43.00;29.52;;;538.50;2406.40;;;;;;5046900;28;20025;-80
2022/08/25 03:55:10;;;;;;;46.28;30.88;;;538.50;2406.40;;;;;;5044065;28;20025;-81
2022/08/25 03:57:37;;;;;;;43.03;28.55;;;538.50;2406.40;;;;;;5039800;28;20044;-80
2022/08/25 04:00:08;;;;;;;42.38;28.38;;;538.40;2406.40;;;;;;5036723;28;20045;-78
2022/08/25 04:02:34;;;;;;;43.47;28.80;;;538.40;2406.40;;;;;;5038565;28;20425;-80
2022/08/25 04:05:00;;;;;;;40.03;28.35;;;538.40;2406.40;;;;;;5072057;28;20113;-79
2022/08/25 04:07:26;;;;;;;43.15;28.98;;;538.40;2406.40;;;;;;5068156;28;20048;-80
2022/08/25 04:09:55;;;;;;;42.30;29.20;;;538.40;2406.40;;;;;;5042220;28;20030;-82
2022/08/25 04:12:21;;;;;;;43.03;29.88;;;538.40;2406.40;;;;;;5041055;28;20056;-79
2022/08/25 04:14:47;;;;;;;43.45;28.58;;;538.40;2406.40;;;;;;5039847;28;20033;-80
2022/08/25 04:17:13;;;;;;;37.67;27.77;;;538.40;2406.40;;;;;;5038463;28;20029;-80
2022/08/25 04:19:39;;;;;;;43.15;28.10;;;538.40;2406.40;;;;;;5038047;28;20356;-80
2022/08/25 04:22:05;;;;;;;39.40;28.55;;;538.50;2406.40;;;;;;5033768;28;20030;-80
2022/08/25 04:24:31;;;;;;;41.08;30.25;;;538.30;2406.40;;;;;;5040150;28;20116;-80
2022/08/25 04:26:57;;;;;;;42.58;29.15;;;538.30;2406.40;;;;;;5075472;28;20057;-81
2022/08/25 04:29:24;;;;;;;40.28;28.50;;;538.30;2406.40;;;;;;5037705;28;20424;-80
2022/08/25 04:31:51;;;;;;;44.42;28.83;;;538.20;2406.40;;;;;;5045963;28;20471;-80
2022/08/25 04:34:19;;;;;;;41.30;30.38;;;538.10;2406.40;;;;;;5050753;28;20032;-80
2022/08/25 04:36:45;;;;;;;43.42;29.60;;;538.20;2406.40;;;;;;5053642;28;20029;-80
2022/08/25 04:39:11;;;;;;;41.88;30.13;;;538.10;2406.40;;;;;;5048607;28;20025;-80
2022/08/25 04:41:38;;;;;;;57.28;30.80;;;538.20;2406.40;;;;;;5037595;28;20040;-81
2022/08/25 04:44:04;;;;;;;48.53;32.05;;;538.50;2406.40;;;;;;5037107;28;20030;-79
2022/08/25 04:46:32;;;;;;;45.78;33.13;;;538.30;2406.40;;;;;;5074042;28;20067;-80
2022/08/25 04:48:59;;;;;;;44.63;30.77;;;538.30;2406.40;;;;;;5035040;28;20064;-80
2022/08/25 04:51:32;;;;;;;43.88;30.42;;;538.30;2406.40;;;;;;5045226;28;20083;-80
2022/08/25 04:54:00;;;;;;;43.45;28.83;;;538.50;2406.40;;;;;;5040046;28;20391;-81
2022/08/25 04:56:27;;;;;;;38.72;27.75;;;538.50;2406.40;;;;;;5034337;28;20033;-80
2022/08/25 04:58:55;;;;;;;38.20;26.98;;;538.50;2406.40;;;;;;5037434;28;20664;-80
2022/08/25 05:01:23;;;;;;;37.88;26.50;;;563.20;2432.00;;;;;;5039473;28;20467;-80
2022/08/25 05:03:58;;;;;;;39.00;25.80;;;563.30;2432.00;;;;;;5037748;28;20026;-80
2022/08/25 05:06:25;;;;;;;41.58;27.13;;;563.50;2432.00;;;;;;5068929;28;20061;-80
2022/08/25 05:08:51;;;;;;;39.90;28.15;;;563.40;2432.00;;;;;;5039049;28;20034;-79
2022/08/25 05:11:18;;;;;;;36.63;25.10;;;563.20;2432.00;;;;;;5034733;28;20087;-79
2022/08/25 05:13:46;;;;;;;37.15;27.23;;;563.20;2432.00;;;;;;5068467;28;20148;-80
2022/08/25 05:16:12;;;;;;;43.70;27.95;;;563.20;2432.00;;;;;;5072146;28;20033;-79
2022/08/25 05:18:38;;;;;;;39.70;29.60;;;538.40;2406.40;;;;;;5068739;28;20025;-80
2022/08/25 05:21:16;;;;;;;42.67;27.15;;;538.40;2406.40;;;;;;5037450;28;20025;-81
2022/08/25 05:23:42;;;;;;;41.10;27.83;;;538.50;2406.40;;;;;;5035295;28;20447;-80
2022/08/25 05:26:11;;;;;;;39.53;26.90;;;538.50;2406.40;;;;;;5039203;28;20421;-79
2022/08/25 05:28:40;;;;;;;42.45;27.75;;;538.50;2406.40;;;;;;5038328;28;20057;-80
2022/08/25 05:31:07;;;;;;;33.88;25.67;;;538.50;2406.40;;;;;;5072603;28;20033;-80
2022/08/25 05:33:33;;;;;;;38.28;25.48;;;563.20;2432.00;;;;;;5034329;28;20036;-80
2022/08/25 05:36:00;;;;;;;39.80;26.33;;;563.40;2432.00;;;;;;5066985;28;20458;-81
2022/08/25 05:38:26;;;;;;;35.00;24.50;;;563.50;2432.00;;;;;;5040342;28;20056;-80
2022/08/25 05:40:59;;;;;;;34.17;23.45;;;563.60;2432.00;;;;;;5055616;28;20705;-80
2022/08/25 05:43:25;;;;;;;29.98;21.85;;;563.90;2432.00;;;;;;5050280;28;20433;-81
2022/08/25 05:45:55;;;;;;;39.08;23.88;;;563.90;2432.00;;;;;;5039994;28;20021;-80
2022/08/25 05:48:21;;;;;;;36.90;22.73;;;564.10;2432.00;;;;;;5040890;28;20047;-80
2022/08/25 05:50:52;;;;;;;32.35;22.20;;;564.00;2432.00;;;;;;5035409;28;20029;-80
2022/08/25 05:53:19;;;;;;;35.25;22.27;;;564.10;2432.00;;;;;;5068429;28;20466;-80
2022/08/25 05:55:45;;;;;;;34.08;22.65;;;564.10;2432.00;;;;;;5039226;28;20116;-81
2022/08/25 05:58:11;;;;;;;32.55;23.05;;;564.10;2432.00;;;;;;5049395;28;20086;-80
2022/08/25 06:00:38;;;;;;;36.20;23.23;;;564.10;2432.00;;;;;;5040186;28;20025;-82
2022/08/25 06:03:03;;;;;;;35.65;22.90;;;564.10;2432.00;;;;;;5041214;28;20024;-81
2022/08/25 06:05:31;;;;;;;37.65;22.63;;;564.10;2432.00;;;;;;5035467;28;20033;-81
2022/08/25 06:07:57;;;;;;;35.60;23.05;;;564.10;2432.00;;;;;;5036732;28;20041;-79
2022/08/25 06:10:26;;;;;;;34.25;22.00;;;564.10;2432.00;;;;;;5072603;28;20022;-80
2022/08/25 06:12:52;;;;;;;33.08;22.58;;;588.80;2432.00;;;;;;5043297;28;20025;-79
2022/08/25 06:15:21;;;;;;;35.63;23.85;;;588.90;2432.00;;;;;;5073813;28;20021;-80
2022/08/25 06:17:48;;;;;;;35.17;23.63;;;589.00;2432.00;;;;;;5039565;28;20102;-80
2022/08/25 06:20:17;;;;;;;36.33;24.40;;;589.00;2432.00;;;;;;5038597;28;20161;-79
2022/08/25 06:22:44;;;;;;;39.20;25.88;;;589.00;2432.00;;;;;;5070299;28;20117;-81
2022/08/25 06:25:12;;;;;;;34.83;24.20;;;589.00;2432.00;;;;;;5036978;28;20108;-80
2022/08/25 06:27:38;;;;;;;32.63;21.75;;;589.00;2432.00;;;;;;5041835;28;20025;-81
2022/08/25 06:30:06;;;;;;;34.92;23.15;;;589.10;2432.00;;;;;;5038472;28;20091;-81
2022/08/25 06:32:34;;;;;;;32.85;23.58;;;589.10;2432.00;;;;;;5071087;28;20057;-81
2022/08/25 06:35:01;;;;;;;32.25;22.70;;;589.20;2432.00;;;;;;5037251;28;20037;-83
2022/08/25 06:37:27;;;;;;;32.40;23.00;;;589.10;2432.00;;;;;;5068189;28;20091;-81
2022/08/25 06:39:53;;;;;;;35.97;22.55;;;589.20;2432.00;;;;;;5039091;28;20021;-81
2022/08/25 06:42:19;;;;;;;31.48;22.17;;;589.30;2432.00;;;;;;5034998;28;20022;-83
2022/08/25 06:44:44;;;;;;;31.80;22.50;;;589.20;2432.00;;;;;;5038312;28;20029;-82
2022/08/25 06:47:10;;;;;;;37.42;23.65;;;589.10;2432.00;;;;;;5072184;28;20475;-80
2022/08/25 06:49:36;;;;;;;34.75;23.30;;;589.10;2432.00;;;;;;5069886;28;20033;-80
2022/08/25 06:52:02;;;;;;;35.33;24.10;;;589.10;2432.00;;;;;;5034661;28;20120;-82
2022/08/25 06:54:28;;;;;;;34.65;24.30;;;589.10;2432.00;;;;;;5072604;28;20123;-81
2022/08/25 06:56:54;;;;;;;34.10;24.02;;;589.10;2432.00;;;;;;5070715;28;20033;-81
2022/08/25 06:59:19;;;;;;;34.20;23.85;;;589.10;2432.00;;;;;;5033979;28;20029;-81
2022/08/25 07:01:45;;;;;;;35.85;24.90;;;589.20;2432.00;;;;;;5042636;28;20554;-81
2022/08/25 07:04:12;;;;;;;38.78;25.27;;;589.30;2432.00;;;;;;5069019;28;20494;-80
2022/08/25 07:06:37;;;;;;;37.00;25.13;;;589.30;2432.00;;;;;;5035221;28;20132;-80
2022/08/25 07:09:05;;;;;;;32.72;24.25;;;589.40;2432.00;;;;;;5071005;28;20121;-82
2022/08/25 07:11:33;;;;;;;40.75;26.23;;;589.40;2432.00;;;;;;5050997;28;20025;-80
2022/08/25 07:14:04;;;;;;;38.85;25.77;;;589.60;2432.00;;;;;;5050071;28;20025;-80
2022/08/25 07:16:31;;;;;;;39.58;26.83;;;589.60;2432.00;;;;;;5039233;28;20033;-80
2022/08/25 07:18:58;;;;;;;42.20;25.55;;;589.70;2432.00;;;;;;5040274;28;20040;-81
2022/08/25 07:21:25;;;;;;;37.33;26.25;;;589.70;2432.00;;;;;;5038475;28;20111;-82
2022/08/25 07:23:51;;;;;;;37.17;24.50;;;614.50;2432.00;;;;;;5068258;28;20022;-83
2022/08/25 07:26:23;;;;;;;36.22;24.73;;;614.60;2432.00;;;;;;5034916;28;20026;-82
2022/08/25 07:28:49;;;;;;;35.35;23.10;;;614.70;2432.00;;;;;;5035453;28;20029;-80
2022/08/25 07:31:15;;;;;;;38.72;25.98;;;614.70;2432.00;;;;;;5043727;28;20029;-84
2022/08/25 07:35:14;;;;;;;30.85;24.63;;;614.80;2432.00;;;;;;5039211;28;20226;-84
2022/08/25 07:36:27;;;;;;;37.45;26.17;;;614.80;2432.00;;;;;;5038519;28;20056;-81
2022/08/25 07:38:53;;;;;;;39.58;25.60;;;614.80;2432.00;;;;;;5050901;28;20120;-83
2022/08/25 07:41:19;;;;;;;35.63;26.45;;;614.90;2432.00;;;;;;5072879;28;20025;-81
2022/08/25 07:43:46;;;;;;;35.83;25.77;;;614.90;2432.00;;;;;;5048834;28;20114;-82
2022/08/25 07:46:12;;;;;;;32.40;24.73;;;614.90;2432.00;;;;;;5074225;28;20112;-81
2022/08/25 07:48:38;;;;;;;31.75;24.05;;;615.00;2432.00;;;;;;5042145;28;20501;-83
2022/08/25 07:51:11;;;;;;;33.42;25.10;;;615.00;2432.00;;;;;;5050362;28;20029;-81
2022/08/25 07:53:37;;;;;;;30.65;23.60;;;614.90;2432.00;;;;;;5049617;28;20024;-82
2022/08/25 07:56:07;;;;;;;39.40;25.52;;;614.90;2432.00;;;;;;5075863;28;20466;-82
2022/08/25 07:58:33;;;;;;;32.45;24.40;;;614.90;2432.00;;;;;;5052377;28;20030;-81
2022/08/25 08:00:59;;;;;;;35.83;23.60;;;615.00;2432.00;;;;;;5047204;28;20021;-83
2022/08/25 08:03:25;;;;;;;33.83;24.88;;;615.00;2432.00;;;;;;5069879;28;20033;-83
2022/08/25 08:05:51;;;;;;;36.03;25.08;;;615.10;2432.00;;;;;;5054156;28;20017;-84
2022/08/25 08:08:17;;;;;;;32.70;22.75;;;615.10;2432.00;;;;;;5047580;28;20029;-83
2022/08/25 08:10:42;;;;;;;32.95;25.52;;;615.10;2432.00;;;;;;5047501;28;20025;-83
2022/08/25 08:13:09;;;;;;;33.05;23.33;;;615.00;2432.00;;;;;;5046672;28;20501;-83
2022/08/25 08:15:36;;;;;;;33.58;25.92;;;615.30;2432.00;;;;;;5047032;28;20110;-82
2022/08/25 08:18:02;;;;;;;32.30;24.88;;;615.30;2432.00;;;;;;5048941;28;20159;-83
2022/08/25 08:20:32;;;;;;;33.38;25.02;;;615.20;2432.00;;;;;;5050337;28;20025;-81
2022/08/25 08:22:58;;;;;;;34.92;25.27;;;615.20;2432.00;;;;;;5051704;28;20022;-83
2022/08/25 08:25:24;;;;;;;31.85;23.17;;;615.20;2432.00;;;;;;5053982;28;20029;-82
2022/08/25 08:27:50;;;;;;;31.15;24.15;;;615.30;2432.00;;;;;;5047428;28;20083;-81
2022/08/25 08:30:16;;;;;;;34.75;23.65;;;615.30;2432.00;;;;;;5075191;28;20526;-83
2022/08/25 08:32:43;;;;;;;29.05;24.63;;;640.00;2432.00;;;;;;5050263;28;20021;-83
2022/08/25 08:35:09;;;;;;;31.15;24.20;;;640.10;2432.00;;;;;;5046882;28;20375;-82
2022/08/25 08:37:38;;;;;;;32.03;24.55;;;640.10;2432.00;;;;;;5047589;28;20032;-83
2022/08/25 08:40:06;;;;;;;29.88;22.73;;;640.10;2432.00;;;;;;5048259;28;20043;-81
2022/08/25 08:43:05;;;;;;;32.83;23.88;;;640.20;2432.00;;;;;;5044326;28;20029;-83
2022/08/25 08:45:41;;;;;;;30.35;22.75;;;640.20;2432.00;;;;;;5080346;28;20036;-83
2022/08/25 08:48:31;;;;;;;32.38;22.08;;;640.00;2432.00;;;;;;5046870;28;20389;-82
2022/08/25 08:51:05;;;;;;;31.77;21.48;;;640.10;2432.00;;;;;;5051603;28;20079;-81
2022/08/25 08:54:07;;;;;;;34.78;21.90;;;640.10;2432.00;;;;;;5050996;28;20459;-81
2022/08/25 08:56:41;;;;;;;29.42;21.92;;;640.40;2432.00;;;;;;5046793;28;20029;-80
2022/08/25 08:59:18;;;;;;;27.98;20.33;;;640.40;2432.00;;;;;;5041117;28;20024;-81
2022/08/25 09:01:55;;;;;;;29.67;21.10;;;640.40;2432.00;;;;;;5051572;28;20074;-83
2022/08/25 09:04:39;;;;;;;28.85;20.52;;;640.50;2432.00;;;;;;5049997;28;20028;-82
2022/08/25 09:07:10;;;;;;;27.70;20.38;;;;;;;;;;5044862;28;20032;-83
2022/08/25 09:09:39;;;;;;;26.53;21.20;;;640.60;2432.00;;;;;;5052844;28;20488;-81
2022/08/25 09:12:26;;;;;;;28.65;21.23;;;665.60;2432.00;;;;;;5052165;28;20254;-83
2022/08/25 09:15:10;;;;;;;26.02;20.10;;;640.90;2432.00;;;;;;5048841;28;20025;-83
2022/08/25 09:17:50;;;;;;;27.00;20.80;;;665.60;2432.00;;;;;;5046713;28;20220;-82
2022/08/25 09:20:57;;;;;;;22.48;18.50;;;665.60;2432.00;;;;;;5045810;28;20020;-83
2022/08/25 09:23:28;;;;;;;28.63;19.08;;;665.80;2432.00;;;;;;5048117;28;20021;-83
2022/08/25 09:26:17;;;;;;;29.80;19.25;;;665.90;2432.00;;;;;;5049281;28;20033;-81
2022/08/25 09:29:06;;;;;;;28.80;19.27;;;665.90;2432.00;;;;;;5048269;28;20075;-82
2022/08/25 09:31:35;;;;;;;23.17;18.23;;;666.20;2432.00;;;;;;5051044;28;20383;-81
2022/08/25 09:34:06;;;;;;;25.67;18.58;;;;;;;;;;5047901;28;20013;-81
2022/08/25 09:36:32;;;;;;;30.30;18.47;;;;;;;;;;5049472;28;20086;-82
2022/08/25 09:38:59;;;;;;;32.78;20.20;;;666.50;2432.00;;;;;;5045771;28;20255;-79
2022/08/25 09:41:49;;;;;;;26.70;18.33;;;691.20;2432.00;;;;;;5035234;28;20033;-79
2022/08/25 09:44:20;;;;;;;29.55;18.83;;;691.20;2432.00;;;;;;5045888;28;20080;-79
2022/08/25 09:47:00;;;;;;;22.58;16.85;;;691.30;2432.00;;;;;;5036202;28;20041;-81
2022/08/25 09:50:02;;;;;;;22.73;18.27;;;691.30;2432.00;;;;;;5037366;28;20103;-79
2022/08/25 09:52:30;;;;;;;23.08;18.38;;;691.20;2432.00;;;;;;5012540;28;20033;-80
2022/08/25 09:55:01;;;;;;;25.45;18.67;;;666.50;2432.00;;;;;;5031223;28;20437;-78
2022/08/25 09:57:44;;;;;;;29.83;19.75;;;666.50;2432.00;;;;;;5035880;28;20397;-80
2022/08/25 10:00:21;;;;;;;26.35;20.40;;;691.30;2432.00;;;;;;5040762;28;20021;-81
2022/08/25 10:03:03;;;;;;;25.40;18.17;;;691.30;2432.00;;;;;;5047040;28;20115;-80
2022/08/25 10:05:33;;;;;;;21.55;17.60;;;666.50;2432.00;;;;;;5040503;28;20034;-81
2022/08/25 10:08:03;;;;;;;24.45;20.45;;;666.50;2432.00;;;;;;5038190;28;20029;-81
2022/08/25 10:10:37;;;;;;;25.77;19.85;;;666.50;2432.00;;;;;;5042419;28;20367;-80
2022/08/25 10:13:17;;;;;;;25.00;19.85;;;666.30;2432.00;;;;;;5041324;28;20053;-81
2022/08/25 10:15:43;;;;;;;26.13;19.73;;;666.50;2432.00;;;;;;5040721;28;20029;-80
2022/08/25 10:18:19;;;;;;;25.40;20.45;;;691.60;2432.00;;;;;;5051803;28;20382;-80
2022/08/25 10:20:59;;;;;;;28.60;19.38;;;;;;;;;;5051259;28;20021;-81
2022/08/25 10:23:26;;;;;;;24.83;18.50;;;;;;;;;;5052128;28;20124;-79
2022/08/25 10:25:53;;;;;;;25.65;19.40;;;692.10;2432.00;;;;;;5048036;28;20055;-79
2022/08/25 10:28:35;;;;;;;29.80;20.50;;;717.20;2432.00;;;;;;5069109;28;20039;-80
2022/08/25 10:31:07;;;;;;;31.08;19.38;;;717.20;2432.00;;;;;;5043102;28;20486;-82
2022/08/25 10:34:15;;;;;;;30.83;20.70;;;717.20;2432.00;;;;;;5043850;28;20124;-81
2022/08/25 10:37:19;;;;;;;25.10;19.35;;;717.30;2432.00;;;;;;5046646;28;20510;-83
2022/08/25 10:40:04;;;;;;;25.33;19.25;;;742.50;2432.00;;;;;;5050204;28;20045;-80
2022/08/25 10:42:37;;;;;;;27.58;19.13;;;742.40;2432.00;;;;;;5036903;28;20030;-81
2022/08/25 10:45:42;;;;;;;29.85;19.05;;;;;;;;;;5042230;28;20018;-81
2022/08/25 10:48:15;;;;;;;24.05;18.80;;;;;;;;;;5044858;28;20052;-83
2022/08/25 10:50:59;;;;;;;29.80;18.77;;;742.90;2432.00;;;;;;5042995;28;20025;-84
2022/08/25 10:53:46;;;;;;;26.92;18.35;;;742.40;2432.00;;;;;;5044954;28;20037;-84
2022/08/25 10:56:28;;;;;;;23.23;18.02;;;742.40;2432.00;;;;;;5053074;28;20033;-82
2022/08/25 10:59:00;;;;;;;25.20;18.20;;;742.90;2432.00;;;;;;5037622;28;20033;-83
2022/08/25 11:01:25;;;;;;;24.23;17.50;;;743.10;2432.00;;;;;;5047376;28;20318;-85
2022/08/25 11:03:58;;;;;;;25.65;17.92;;;;;;;;;;5047515;28;20028;-83
2022/08/25 11:06:34;;;;;;;21.88;17.63;;;;;;;;;;5042193;28;20079;-82
2022/08/25 11:09:04;;;;;;;24.65;17.45;;;768.10;2432.00;;;;;;5043644;28;20509;-87
2022/08/25 11:11:48;;;;;;;21.85;17.15;;;743.30;2432.00;;;;;;5040973;28;20505;-82
2022/08/25 11:14:22;;;;;;;22.77;17.45;;;743.30;2432.00;;;;;;5037459;28;20045;-83
2022/08/25 11:17:16;;;;;;;24.25;16.63;;;768.20;2432.00;;;;;;5039558;28;20033;-83
2022/08/25 11:19:46;;;;;;;26.65;16.98;;;768.40;2432.00;;;;;;5039242;28;20021;-83
2022/08/25 11:22:14;;;;;;;21.80;15.45;;;768.40;2432.00;;;;;;5040062;28;20033;-85
2022/08/25 11:24:44;;;;;;;24.80;15.93;;;768.40;2432.00;;;;;;5040810;28;20060;-85
2022/08/25 11:27:17;;;;;;;23.15;13.82;;;768.40;2432.00;;;;;;5048078;28;20112;-83
2022/08/25 11:29:54;;;;;;;25.52;16.90;;;768.10;2432.00;;;;;;5044614;28;20069;-82
2022/08/25 11:32:23;;;;;;;23.45;16.33;;;742.90;2432.00;;;;;;5078560;28;20025;-81
2022/08/25 11:34:49;;;;;;;26.02;16.52;;;743.00;2432.00;;;;;;5041188;28;20091;-83
2022/08/25 11:37:24;;;;;;;26.23;16.17;;;743.20;2432.00;;;;;;5043814;28;20044;-80
2022/08/25 11:40:09;;;;;;;19.80;15.50;;;743.10;2432.00;;;;;;5046448;28;20142;-83
2022/08/25 11:42:57;;;;;;;32.50;16.33;;;742.90;2432.00;;;;;;5051150;28;20026;-82
2022/08/25 11:45:44;;;;;;;25.70;14.55;;;768.00;2432.00;;;;;;5051480;28;20386;-84
2022/08/25 11:48:38;;;;;;;28.60;18.33;;;743.30;2432.00;;;;;;5047326;28;20061;-83
2022/08/25 11:51:10;;;;;;;29.15;16.67;;;768.40;2432.00;;;;;;5047789;28;20030;-85
2022/08/25 11:53:41;;;;;;;27.45;16.65;;;768.00;2432.00;;;;;;5049979;28;20025;-84
2022/08/25 11:56:30;;;;;;;28.25;14.88;;;768.00;2432.00;;;;;;5043121;28;20055;-81
2022/08/25 11:58:56;;;;;;;26.95;16.02;;;;;;;;;;5043453;28;20032;-84
2022/08/25 12:01:41;;;;;;;22.77;17.20;;;768.90;2432.00;;;;;;5053484;28;20025;-84
2022/08/25 12:04:32;;;;;;;23.23;15.30;;;768.80;2432.00;;;;;;5052672;28;20029;-84
2022/08/25 12:07:10;;;;;;;25.65;14.15;;;768.90;2432.00;;;;;;5044577;28;20029;-84
2022/08/25 12:09:52;;;;;;;25.15;14.88;;;768.60;2432.00;;;;;;5053267;28;20043;-84
2022/08/25 12:12:34;;;;;;;23.08;15.48;;;768.40;2432.00;;;;;;5041696;28;20578;-83
2022/08/25 12:15:19;;;;;;;26.33;14.32;;;768.40;2432.00;;;;;;5051828;28;20029;-84
2022/08/25 12:18:05;;;;;;;26.33;15.00;;;768.20;2432.00;;;;;;5045670;28;20379;-84
2022/08/25 12:20:52;;;;;;;24.55;14.82;;;768.20;2432.00;;;;;;5041787;28;20088;-84
2022/08/25 12:23:32;;;;;;;23.02;14.00;;;768.00;2432.00;;;;;;5046479;28;20542;-84
2022/08/25 12:26:03;;;;;;;24.50;15.07;;;768.90;2432.00;;;;;;5045509;28;20033;-82